sensor_id;sensor_type;location;lat;lon;timestamp;P1;durP1;ratioP1;P2;durP2;ratioP2
2211;SDS011;48849;48.758;9.158;2022-12-18T00:02:01;52.55;;;32.40;;
2211;SDS011;48849;48.758;9.158;2022-12-18T00:04:28;50.63;;;30.83;;
2211;SDS011;48849;48.758;9.158;2022-12-18T00:06:55;46.97;;;29.60;;
2211;SDS011;48849;48.758;9.158;2022-12-18T00:09:22;50.00;;;30.23;;
2211;SDS011;48849;48.758;9.158;2022-12-18T00:11:50;48.85;;;29.20;;
2211;SDS011;48849;48.758;9.158;2022-12-18T00:14:17;52.50;;;33.42;;
2211;SDS011;48849;48.758;9.158;2022-12-18T00:16:44;52.78;;;32.90;;
2211;SDS011;48849;48.758;9.158;2022-12-18T00:19:12;45.47;;;28.88;;
2211;SDS011;48849;48.758;9.158;2022-12-18T00:21:40;52.10;;;30.00;;
2211;SDS011;48849;48.758;9.158;2022-12-18T00:24:08;51.75;;;31.50;;
2211;SDS011;48849;48.758;9.158;2022-12-18T00:26:35;56.80;;;31.60;;
2211;SDS011;48849;48.758;9.158;2022-12-18T00:29:05;57.15;;;32.10;;
2211;SDS011;48849;48.758;9.158;2022-12-18T00:31:35;51.13;;;31.17;;
2211;SDS011;48849;48.758;9.158;2022-12-18T00:34:03;50.25;;;32.30;;
2211;SDS011;48849;48.758;9.158;2022-12-18T00:36:30;53.80;;;33.38;;
2211;SDS011;48849;48.758;9.158;2022-12-18T00:38:59;46.92;;;30.15;;
2211;SDS011;48849;48.758;9.158;2022-12-18T00:41:26;55.08;;;31.83;;
2211;SDS011;48849;48.758;9.158;2022-12-18T00:44:13;50.80;;;29.15;;
2211;SDS011;48849;48.758;9.158;2022-12-18T00:46:41;53.92;;;30.30;;
2211;SDS011;48849;48.758;9.158;2022-12-18T00:49:09;45.22;;;27.95;;
2211;SDS011;48849;48.758;9.158;2022-12-18T00:51:39;46.33;;;28.92;;
2211;SDS011;48849;48.758;9.158;2022-12-18T00:54:06;49.15;;;30.00;;
2211;SDS011;48849;48.758;9.158;2022-12-18T00:56:34;55.55;;;32.22;;
2211;SDS011;48849;48.758;9.158;2022-12-18T00:59:01;54.67;;;29.88;;
2211;SDS011;48849;48.758;9.158;2022-12-18T01:01:30;54.75;;;32.30;;
2211;SDS011;48849;48.758;9.158;2022-12-18T01:03:57;51.70;;;31.60;;
2211;SDS011;48849;48.758;9.158;2022-12-18T01:06:25;52.65;;;29.90;;
2211;SDS011;48849;48.758;9.158;2022-12-18T01:08:51;53.30;;;29.95;;
2211;SDS011;48849;48.758;9.158;2022-12-18T01:11:19;53.38;;;31.73;;
2211;SDS011;48849;48.758;9.158;2022-12-18T01:13:46;43.33;;;28.38;;
2211;SDS011;48849;48.758;9.158;2022-12-18T01:16:14;50.53;;;29.35;;
2211;SDS011;48849;48.758;9.158;2022-12-18T01:18:44;52.42;;;30.20;;
2211;SDS011;48849;48.758;9.158;2022-12-18T01:21:11;51.80;;;30.42;;
2211;SDS011;48849;48.758;9.158;2022-12-18T01:23:40;46.60;;;28.17;;
2211;SDS011;48849;48.758;9.158;2022-12-18T01:26:07;48.78;;;27.30;;
2211;SDS011;48849;48.758;9.158;2022-12-18T01:28:35;50.97;;;29.30;;
2211;SDS011;48849;48.758;9.158;2022-12-18T01:31:12;43.75;;;27.55;;
2211;SDS011;48849;48.758;9.158;2022-12-18T01:33:41;51.25;;;28.58;;
2211;SDS011;48849;48.758;9.158;2022-12-18T01:36:13;44.33;;;26.50;;
2211;SDS011;48849;48.758;9.158;2022-12-18T01:38:41;48.78;;;29.70;;
2211;SDS011;48849;48.758;9.158;2022-12-18T01:41:08;48.95;;;28.38;;
2211;SDS011;48849;48.758;9.158;2022-12-18T01:43:42;55.03;;;30.73;;
2211;SDS011;48849;48.758;9.158;2022-12-18T01:46:10;47.70;;;27.92;;
2211;SDS011;48849;48.758;9.158;2022-12-18T01:48:36;46.20;;;28.95;;
2211;SDS011;48849;48.758;9.158;2022-12-18T01:51:04;49.00;;;28.05;;
2211;SDS011;48849;48.758;9.158;2022-12-18T01:53:34;45.90;;;27.50;;
2211;SDS011;48849;48.758;9.158;2022-12-18T01:56:03;46.42;;;26.92;;
2211;SDS011;48849;48.758;9.158;2022-12-18T01:58:30;48.22;;;28.38;;
2211;SDS011;48849;48.758;9.158;2022-12-18T02:01:03;45.05;;;26.83;;
2211;SDS011;48849;48.758;9.158;2022-12-18T02:03:30;47.95;;;29.13;;
2211;SDS011;48849;48.758;9.158;2022-12-18T02:05:57;48.17;;;27.80;;
2211;SDS011;48849;48.758;9.158;2022-12-18T02:08:29;47.10;;;27.70;;
2211;SDS011;48849;48.758;9.158;2022-12-18T02:11:05;46.90;;;27.95;;
2211;SDS011;48849;48.758;9.158;2022-12-18T02:13:38;47.78;;;28.15;;
2211;SDS011;48849;48.758;9.158;2022-12-18T02:16:11;45.85;;;28.83;;
2211;SDS011;48849;48.758;9.158;2022-12-18T02:18:46;45.53;;;27.70;;
2211;SDS011;48849;48.758;9.158;2022-12-18T02:21:18;46.75;;;27.15;;
2211;SDS011;48849;48.758;9.158;2022-12-18T02:23:56;41.78;;;25.80;;
2211;SDS011;48849;48.758;9.158;2022-12-18T02:26:33;43.05;;;26.05;;
2211;SDS011;48849;48.758;9.158;2022-12-18T02:29:03;42.78;;;26.17;;
2211;SDS011;48849;48.758;9.158;2022-12-18T02:31:35;43.28;;;24.95;;
2211;SDS011;48849;48.758;9.158;2022-12-18T02:34:06;43.58;;;25.70;;
2211;SDS011;48849;48.758;9.158;2022-12-18T02:36:35;37.92;;;23.92;;
2211;SDS011;48849;48.758;9.158;2022-12-18T02:39:05;49.63;;;24.05;;
2211;SDS011;48849;48.758;9.158;2022-12-18T02:41:36;41.85;;;24.75;;
2211;SDS011;48849;48.758;9.158;2022-12-18T02:44:06;37.88;;;24.00;;
2211;SDS011;48849;48.758;9.158;2022-12-18T02:46:35;42.75;;;24.75;;
2211;SDS011;48849;48.758;9.158;2022-12-18T02:49:09;41.47;;;25.35;;
2211;SDS011;48849;48.758;9.158;2022-12-18T02:51:47;43.88;;;24.60;;
2211;SDS011;48849;48.758;9.158;2022-12-18T02:54:21;42.92;;;24.38;;
2211;SDS011;48849;48.758;9.158;2022-12-18T02:57:01;39.40;;;23.85;;
2211;SDS011;48849;48.758;9.158;2022-12-18T02:59:40;46.90;;;24.40;;
2211;SDS011;48849;48.758;9.158;2022-12-18T03:02:15;35.53;;;22.00;;
2211;SDS011;48849;48.758;9.158;2022-12-18T03:04:48;38.15;;;23.33;;
2211;SDS011;48849;48.758;9.158;2022-12-18T03:07:20;41.28;;;23.42;;
2211;SDS011;48849;48.758;9.158;2022-12-18T03:09:51;41.45;;;23.45;;
2211;SDS011;48849;48.758;9.158;2022-12-18T03:12:24;37.38;;;23.23;;
2211;SDS011;48849;48.758;9.158;2022-12-18T03:14:57;40.15;;;23.95;;
2211;SDS011;48849;48.758;9.158;2022-12-18T03:17:28;39.65;;;23.80;;
2211;SDS011;48849;48.758;9.158;2022-12-18T03:19:58;44.20;;;25.30;;
2211;SDS011;48849;48.758;9.158;2022-12-18T03:22:29;43.85;;;25.35;;
2211;SDS011;48849;48.758;9.158;2022-12-18T03:24:59;38.60;;;25.27;;
2211;SDS011;48849;48.758;9.158;2022-12-18T03:27:30;47.47;;;29.15;;
2211;SDS011;48849;48.758;9.158;2022-12-18T03:30:00;39.28;;;22.50;;
2211;SDS011;48849;48.758;9.158;2022-12-18T03:32:33;42.10;;;24.75;;
2211;SDS011;48849;48.758;9.158;2022-12-18T03:35:06;36.90;;;22.73;;
2211;SDS011;48849;48.758;9.158;2022-12-18T03:37:36;39.95;;;23.67;;
2211;SDS011;48849;48.758;9.158;2022-12-18T03:40:03;39.70;;;25.35;;
2211;SDS011;48849;48.758;9.158;2022-12-18T03:42:34;37.13;;;23.42;;
2211;SDS011;48849;48.758;9.158;2022-12-18T03:45:09;44.53;;;24.95;;
2211;SDS011;48849;48.758;9.158;2022-12-18T03:47:41;41.55;;;24.45;;
2211;SDS011;48849;48.758;9.158;2022-12-18T03:50:13;34.20;;;21.90;;
2211;SDS011;48849;48.758;9.158;2022-12-18T03:52:45;36.45;;;22.95;;
2211;SDS011;48849;48.758;9.158;2022-12-18T03:55:17;40.30;;;22.85;;
2211;SDS011;48849;48.758;9.158;2022-12-18T03:57:47;44.42;;;24.70;;
2211;SDS011;48849;48.758;9.158;2022-12-18T04:00:17;33.00;;;22.15;;
2211;SDS011;48849;48.758;9.158;2022-12-18T04:02:46;35.95;;;22.58;;
2211;SDS011;48849;48.758;9.158;2022-12-18T04:05:17;34.25;;;22.75;;
2211;SDS011;48849;48.758;9.158;2022-12-18T04:07:44;33.80;;;21.55;;
2211;SDS011;48849;48.758;9.158;2022-12-18T04:10:12;36.90;;;21.85;;
2211;SDS011;48849;48.758;9.158;2022-12-18T04:12:42;37.25;;;21.20;;
2211;SDS011;48849;48.758;9.158;2022-12-18T04:15:10;36.50;;;21.30;;
2211;SDS011;48849;48.758;9.158;2022-12-18T04:17:38;33.95;;;21.98;;
2211;SDS011;48849;48.758;9.158;2022-12-18T04:20:09;34.38;;;20.65;;
2211;SDS011;48849;48.758;9.158;2022-12-18T04:22:36;38.72;;;22.08;;
2211;SDS011;48849;48.758;9.158;2022-12-18T04:25:03;36.85;;;23.02;;
2211;SDS011;48849;48.758;9.158;2022-12-18T04:27:30;33.17;;;21.95;;
2211;SDS011;48849;48.758;9.158;2022-12-18T04:29:57;42.65;;;23.40;;
2211;SDS011;48849;48.758;9.158;2022-12-18T04:32:25;35.53;;;21.42;;
2211;SDS011;48849;48.758;9.158;2022-12-18T04:34:52;32.03;;;21.85;;
2211;SDS011;48849;48.758;9.158;2022-12-18T04:37:18;36.55;;;22.38;;
2211;SDS011;48849;48.758;9.158;2022-12-18T04:39:45;38.42;;;21.90;;
2211;SDS011;48849;48.758;9.158;2022-12-18T04:42:12;35.92;;;21.77;;
2211;SDS011;48849;48.758;9.158;2022-12-18T04:44:39;34.13;;;21.33;;
2211;SDS011;48849;48.758;9.158;2022-12-18T04:47:06;36.00;;;21.25;;
2211;SDS011;48849;48.758;9.158;2022-12-18T04:49:34;35.00;;;22.00;;
2211;SDS011;48849;48.758;9.158;2022-12-18T04:52:01;35.42;;;21.15;;
2211;SDS011;48849;48.758;9.158;2022-12-18T04:54:28;32.05;;;20.70;;
2211;SDS011;48849;48.758;9.158;2022-12-18T04:56:54;37.72;;;21.20;;
2211;SDS011;48849;48.758;9.158;2022-12-18T04:59:21;33.58;;;20.33;;
2211;SDS011;48849;48.758;9.158;2022-12-18T05:01:48;34.75;;;21.05;;
2211;SDS011;48849;48.758;9.158;2022-12-18T05:04:15;35.05;;;21.13;;
2211;SDS011;48849;48.758;9.158;2022-12-18T05:06:43;37.97;;;22.40;;
2211;SDS011;48849;48.758;9.158;2022-12-18T05:09:09;39.13;;;22.17;;
2211;SDS011;48849;48.758;9.158;2022-12-18T05:11:36;32.63;;;20.25;;
2211;SDS011;48849;48.758;9.158;2022-12-18T05:14:03;36.92;;;22.13;;
2211;SDS011;48849;48.758;9.158;2022-12-18T05:16:30;44.55;;;22.90;;
2211;SDS011;48849;48.758;9.158;2022-12-18T05:18:56;35.95;;;21.60;;
2211;SDS011;48849;48.758;9.158;2022-12-18T05:21:23;34.13;;;19.80;;
2211;SDS011;48849;48.758;9.158;2022-12-18T05:23:51;38.03;;;21.77;;
2211;SDS011;48849;48.758;9.158;2022-12-18T05:26:18;34.95;;;22.13;;
2211;SDS011;48849;48.758;9.158;2022-12-18T05:28:45;36.05;;;22.67;;
2211;SDS011;48849;48.758;9.158;2022-12-18T05:31:12;35.40;;;22.13;;
2211;SDS011;48849;48.758;9.158;2022-12-18T05:33:39;35.00;;;21.63;;
2211;SDS011;48849;48.758;9.158;2022-12-18T05:36:06;32.33;;;21.08;;
2211;SDS011;48849;48.758;9.158;2022-12-18T05:38:35;36.58;;;21.77;;
2211;SDS011;48849;48.758;9.158;2022-12-18T05:41:05;33.42;;;21.42;;
2211;SDS011;48849;48.758;9.158;2022-12-18T05:43:33;32.17;;;19.90;;
2211;SDS011;48849;48.758;9.158;2022-12-18T05:46:03;39.03;;;21.30;;
2211;SDS011;48849;48.758;9.158;2022-12-18T05:48:30;35.88;;;20.77;;
2211;SDS011;48849;48.758;9.158;2022-12-18T05:51:02;39.67;;;22.00;;
2211;SDS011;48849;48.758;9.158;2022-12-18T05:53:30;37.30;;;22.38;;
2211;SDS011;48849;48.758;9.158;2022-12-18T05:55:59;36.58;;;20.90;;
2211;SDS011;48849;48.758;9.158;2022-12-18T05:58:28;41.65;;;22.08;;
2211;SDS011;48849;48.758;9.158;2022-12-18T06:00:55;39.92;;;20.60;;
2211;SDS011;48849;48.758;9.158;2022-12-18T06:03:21;38.47;;;21.17;;
2211;SDS011;48849;48.758;9.158;2022-12-18T06:05:48;34.08;;;21.38;;
2211;SDS011;48849;48.758;9.158;2022-12-18T06:08:15;43.05;;;23.63;;
2211;SDS011;48849;48.758;9.158;2022-12-18T06:10:42;36.13;;;21.88;;
2211;SDS011;48849;48.758;9.158;2022-12-18T06:13:16;40.38;;;22.13;;
2211;SDS011;48849;48.758;9.158;2022-12-18T06:15:44;43.95;;;22.60;;
2211;SDS011;48849;48.758;9.158;2022-12-18T06:18:10;38.28;;;23.75;;
2211;SDS011;48849;48.758;9.158;2022-12-18T06:20:37;31.52;;;19.90;;
2211;SDS011;48849;48.758;9.158;2022-12-18T06:23:04;37.35;;;20.83;;
2211;SDS011;48849;48.758;9.158;2022-12-18T06:25:31;31.05;;;19.77;;
2211;SDS011;48849;48.758;9.158;2022-12-18T06:27:58;37.08;;;21.27;;
2211;SDS011;48849;48.758;9.158;2022-12-18T06:30:25;33.70;;;20.70;;
2211;SDS011;48849;48.758;9.158;2022-12-18T06:32:53;38.28;;;20.92;;
2211;SDS011;48849;48.758;9.158;2022-12-18T06:35:20;36.17;;;20.02;;
2211;SDS011;48849;48.758;9.158;2022-12-18T06:37:47;35.90;;;19.50;;
2211;SDS011;48849;48.758;9.158;2022-12-18T06:40:13;33.25;;;20.85;;
2211;SDS011;48849;48.758;9.158;2022-12-18T06:42:40;30.95;;;20.13;;
2211;SDS011;48849;48.758;9.158;2022-12-18T06:45:07;28.95;;;18.90;;
2211;SDS011;48849;48.758;9.158;2022-12-18T06:47:35;31.80;;;18.70;;
2211;SDS011;48849;48.758;9.158;2022-12-18T06:50:03;36.03;;;20.63;;
2211;SDS011;48849;48.758;9.158;2022-12-18T06:52:31;33.70;;;20.38;;
2211;SDS011;48849;48.758;9.158;2022-12-18T06:54:58;30.20;;;19.77;;
2211;SDS011;48849;48.758;9.158;2022-12-18T06:57:25;35.03;;;21.73;;
2211;SDS011;48849;48.758;9.158;2022-12-18T06:59:51;36.55;;;21.05;;
2211;SDS011;48849;48.758;9.158;2022-12-18T07:02:18;38.55;;;20.05;;
2211;SDS011;48849;48.758;9.158;2022-12-18T07:04:45;35.30;;;21.13;;
2211;SDS011;48849;48.758;9.158;2022-12-18T07:07:15;32.28;;;21.38;;
2211;SDS011;48849;48.758;9.158;2022-12-18T07:09:42;36.65;;;21.20;;
2211;SDS011;48849;48.758;9.158;2022-12-18T07:12:09;35.90;;;22.05;;
2211;SDS011;48849;48.758;9.158;2022-12-18T07:14:36;34.13;;;20.33;;
2211;SDS011;48849;48.758;9.158;2022-12-18T07:17:02;34.42;;;21.10;;
2211;SDS011;48849;48.758;9.158;2022-12-18T07:19:29;33.22;;;20.40;;
2211;SDS011;48849;48.758;9.158;2022-12-18T07:21:56;35.33;;;21.40;;
2211;SDS011;48849;48.758;9.158;2022-12-18T07:24:24;36.00;;;21.90;;
2211;SDS011;48849;48.758;9.158;2022-12-18T07:26:51;34.03;;;21.15;;
2211;SDS011;48849;48.758;9.158;2022-12-18T07:29:17;37.08;;;22.25;;
2211;SDS011;48849;48.758;9.158;2022-12-18T07:31:44;34.55;;;19.92;;
2211;SDS011;48849;48.758;9.158;2022-12-18T07:34:11;36.60;;;20.60;;
2211;SDS011;48849;48.758;9.158;2022-12-18T07:36:38;37.42;;;20.58;;
2211;SDS011;48849;48.758;9.158;2022-12-18T07:39:05;35.65;;;21.23;;
2211;SDS011;48849;48.758;9.158;2022-12-18T07:41:33;34.63;;;19.45;;
2211;SDS011;48849;48.758;9.158;2022-12-18T07:44:00;37.05;;;21.60;;
2211;SDS011;48849;48.758;9.158;2022-12-18T07:46:27;34.67;;;21.42;;
2211;SDS011;48849;48.758;9.158;2022-12-18T07:48:53;33.83;;;20.42;;
2211;SDS011;48849;48.758;9.158;2022-12-18T07:51:20;38.67;;;21.13;;
2211;SDS011;48849;48.758;9.158;2022-12-18T07:53:47;33.88;;;19.98;;
2211;SDS011;48849;48.758;9.158;2022-12-18T07:56:13;32.40;;;19.67;;
2211;SDS011;48849;48.758;9.158;2022-12-18T07:58:41;34.30;;;20.50;;
2211;SDS011;48849;48.758;9.158;2022-12-18T08:01:09;33.90;;;18.67;;
2211;SDS011;48849;48.758;9.158;2022-12-18T08:03:38;31.50;;;19.55;;
2211;SDS011;48849;48.758;9.158;2022-12-18T08:06:06;36.72;;;21.52;;
2211;SDS011;48849;48.758;9.158;2022-12-18T08:08:34;33.20;;;21.23;;
2211;SDS011;48849;48.758;9.158;2022-12-18T08:11:02;36.78;;;20.50;;
2211;SDS011;48849;48.758;9.158;2022-12-18T08:13:29;34.92;;;21.13;;
2211;SDS011;48849;48.758;9.158;2022-12-18T08:15:57;32.13;;;20.80;;
2211;SDS011;48849;48.758;9.158;2022-12-18T08:18:25;33.90;;;19.50;;
2211;SDS011;48849;48.758;9.158;2022-12-18T08:20:51;36.53;;;20.08;;
2211;SDS011;48849;48.758;9.158;2022-12-18T08:23:18;35.65;;;19.73;;
2211;SDS011;48849;48.758;9.158;2022-12-18T08:25:45;36.70;;;20.48;;
2211;SDS011;48849;48.758;9.158;2022-12-18T08:28:12;29.50;;;18.00;;
2211;SDS011;48849;48.758;9.158;2022-12-18T08:30:41;35.42;;;20.00;;
2211;SDS011;48849;48.758;9.158;2022-12-18T08:33:09;34.67;;;20.17;;
2211;SDS011;48849;48.758;9.158;2022-12-18T08:35:36;36.25;;;22.40;;
2211;SDS011;48849;48.758;9.158;2022-12-18T08:38:03;39.35;;;23.33;;
2211;SDS011;48849;48.758;9.158;2022-12-18T08:40:29;36.33;;;20.92;;
2211;SDS011;48849;48.758;9.158;2022-12-18T08:42:56;39.00;;;21.20;;
2211;SDS011;48849;48.758;9.158;2022-12-18T08:45:41;34.60;;;19.48;;
2211;SDS011;48849;48.758;9.158;2022-12-18T08:48:09;37.65;;;23.20;;
2211;SDS011;48849;48.758;9.158;2022-12-18T08:50:35;34.25;;;21.52;;
2211;SDS011;48849;48.758;9.158;2022-12-18T08:53:02;33.95;;;20.13;;
2211;SDS011;48849;48.758;9.158;2022-12-18T08:55:29;32.88;;;20.65;;
2211;SDS011;48849;48.758;9.158;2022-12-18T08:57:56;35.55;;;21.35;;
2211;SDS011;48849;48.758;9.158;2022-12-18T09:00:22;34.15;;;20.63;;
2211;SDS011;48849;48.758;9.158;2022-12-18T09:02:49;34.45;;;20.60;;
2211;SDS011;48849;48.758;9.158;2022-12-18T09:05:17;30.98;;;20.00;;
2211;SDS011;48849;48.758;9.158;2022-12-18T09:07:44;33.75;;;21.45;;
2211;SDS011;48849;48.758;9.158;2022-12-18T09:10:11;34.83;;;21.02;;
2211;SDS011;48849;48.758;9.158;2022-12-18T09:12:38;36.13;;;21.23;;
2211;SDS011;48849;48.758;9.158;2022-12-18T09:15:05;34.50;;;21.63;;
2211;SDS011;48849;48.758;9.158;2022-12-18T09:17:32;34.45;;;21.20;;
2211;SDS011;48849;48.758;9.158;2022-12-18T09:19:59;39.58;;;22.10;;
2211;SDS011;48849;48.758;9.158;2022-12-18T09:22:27;36.22;;;22.20;;
2211;SDS011;48849;48.758;9.158;2022-12-18T09:24:53;37.17;;;21.48;;
2211;SDS011;48849;48.758;9.158;2022-12-18T09:27:20;40.13;;;23.58;;
2211;SDS011;48849;48.758;9.158;2022-12-18T09:29:47;35.17;;;21.90;;
2211;SDS011;48849;48.758;9.158;2022-12-18T09:32:14;41.35;;;23.42;;
2211;SDS011;48849;48.758;9.158;2022-12-18T09:34:40;39.33;;;23.00;;
2211;SDS011;48849;48.758;9.158;2022-12-18T09:37:07;36.00;;;21.20;;
2211;SDS011;48849;48.758;9.158;2022-12-18T09:39:35;39.20;;;22.63;;
2211;SDS011;48849;48.758;9.158;2022-12-18T09:42:02;35.42;;;22.90;;
2211;SDS011;48849;48.758;9.158;2022-12-18T09:44:29;38.15;;;23.83;;
2211;SDS011;48849;48.758;9.158;2022-12-18T09:47:09;36.70;;;22.88;;
2211;SDS011;48849;48.758;9.158;2022-12-18T09:49:40;39.60;;;22.88;;
2211;SDS011;48849;48.758;9.158;2022-12-18T09:52:11;41.03;;;22.40;;
2211;SDS011;48849;48.758;9.158;2022-12-18T09:54:43;36.70;;;22.52;;
2211;SDS011;48849;48.758;9.158;2022-12-18T09:57:14;39.47;;;22.60;;
2211;SDS011;48849;48.758;9.158;2022-12-18T09:59:44;42.55;;;23.17;;
2211;SDS011;48849;48.758;9.158;2022-12-18T10:02:16;41.22;;;23.60;;
2211;SDS011;48849;48.758;9.158;2022-12-18T10:04:47;40.55;;;24.42;;
2211;SDS011;48849;48.758;9.158;2022-12-18T10:07:21;36.25;;;22.55;;
2211;SDS011;48849;48.758;9.158;2022-12-18T10:09:58;41.83;;;22.98;;
2211;SDS011;48849;48.758;9.158;2022-12-18T10:12:31;37.95;;;22.58;;
2211;SDS011;48849;48.758;9.158;2022-12-18T10:15:07;42.33;;;26.25;;
2211;SDS011;48849;48.758;9.158;2022-12-18T10:17:41;38.95;;;24.88;;
2211;SDS011;48849;48.758;9.158;2022-12-18T10:20:15;43.05;;;25.17;;
2211;SDS011;48849;48.758;9.158;2022-12-18T10:22:49;39.47;;;24.65;;
2211;SDS011;48849;48.758;9.158;2022-12-18T10:25:23;36.83;;;23.15;;
2211;SDS011;48849;48.758;9.158;2022-12-18T10:27:55;38.63;;;24.40;;
2211;SDS011;48849;48.758;9.158;2022-12-18T10:30:24;42.30;;;24.65;;
2211;SDS011;48849;48.758;9.158;2022-12-18T10:32:53;39.13;;;24.60;;
2211;SDS011;48849;48.758;9.158;2022-12-18T10:35:21;43.83;;;24.27;;
2211;SDS011;48849;48.758;9.158;2022-12-18T10:38:00;40.70;;;22.80;;
2211;SDS011;48849;48.758;9.158;2022-12-18T10:40:30;39.25;;;22.50;;
2211;SDS011;48849;48.758;9.158;2022-12-18T10:43:03;38.75;;;22.98;;
2211;SDS011;48849;48.758;9.158;2022-12-18T10:45:30;38.05;;;23.08;;
2211;SDS011;48849;48.758;9.158;2022-12-18T10:47:57;44.20;;;24.40;;
2211;SDS011;48849;48.758;9.158;2022-12-18T10:50:26;35.47;;;22.60;;
2211;SDS011;48849;48.758;9.158;2022-12-18T10:52:57;41.55;;;26.23;;
2211;SDS011;48849;48.758;9.158;2022-12-18T10:55:27;44.58;;;25.00;;
2211;SDS011;48849;48.758;9.158;2022-12-18T10:58:13;36.03;;;21.45;;
2211;SDS011;48849;48.758;9.158;2022-12-18T11:00:43;38.25;;;23.48;;
2211;SDS011;48849;48.758;9.158;2022-12-18T11:06:01;41.13;;;24.75;;
2211;SDS011;48849;48.758;9.158;2022-12-18T11:08:29;43.35;;;24.25;;
2211;SDS011;48849;48.758;9.158;2022-12-18T11:10:57;44.72;;;24.65;;
2211;SDS011;48849;48.758;9.158;2022-12-18T11:13:25;41.15;;;24.15;;
2211;SDS011;48849;48.758;9.158;2022-12-18T11:15:53;39.55;;;23.30;;
2211;SDS011;48849;48.758;9.158;2022-12-18T11:18:22;40.78;;;22.60;;
2211;SDS011;48849;48.758;9.158;2022-12-18T11:20:53;37.50;;;23.52;;
2211;SDS011;48849;48.758;9.158;2022-12-18T11:23:22;38.00;;;23.65;;
2211;SDS011;48849;48.758;9.158;2022-12-18T11:25:50;40.60;;;24.67;;
2211;SDS011;48849;48.758;9.158;2022-12-18T11:28:34;45.47;;;25.35;;
2211;SDS011;48849;48.758;9.158;2022-12-18T11:31:19;40.08;;;23.45;;
2211;SDS011;48849;48.758;9.158;2022-12-18T11:33:50;40.22;;;23.40;;
2211;SDS011;48849;48.758;9.158;2022-12-18T11:36:22;45.28;;;24.38;;
2211;SDS011;48849;48.758;9.158;2022-12-18T11:38:49;40.90;;;23.60;;
2211;SDS011;48849;48.758;9.158;2022-12-18T11:41:21;42.15;;;23.15;;
2211;SDS011;48849;48.758;9.158;2022-12-18T11:44:14;43.33;;;24.90;;
2211;SDS011;48849;48.758;9.158;2022-12-18T11:46:49;38.13;;;22.98;;
2211;SDS011;48849;48.758;9.158;2022-12-18T11:49:22;38.30;;;21.95;;
2211;SDS011;48849;48.758;9.158;2022-12-18T11:51:53;42.90;;;24.60;;
2211;SDS011;48849;48.758;9.158;2022-12-18T11:54:24;40.40;;;23.67;;
2211;SDS011;48849;48.758;9.158;2022-12-18T11:56:53;46.40;;;26.02;;
2211;SDS011;48849;48.758;9.158;2022-12-18T11:59:28;42.65;;;25.92;;
2211;SDS011;48849;48.758;9.158;2022-12-18T12:02:04;35.63;;;21.73;;
2211;SDS011;48849;48.758;9.158;2022-12-18T12:04:47;40.75;;;23.48;;
2211;SDS011;48849;48.758;9.158;2022-12-18T12:07:29;44.53;;;23.70;;
2211;SDS011;48849;48.758;9.158;2022-12-18T12:10:07;46.35;;;24.30;;
2211;SDS011;48849;48.758;9.158;2022-12-18T12:12:52;38.20;;;22.92;;
2211;SDS011;48849;48.758;9.158;2022-12-18T12:15:32;45.70;;;25.17;;
2211;SDS011;48849;48.758;9.158;2022-12-18T12:18:08;42.17;;;22.75;;
2211;SDS011;48849;48.758;9.158;2022-12-18T12:20:47;42.40;;;23.05;;
2211;SDS011;48849;48.758;9.158;2022-12-18T12:23:22;38.53;;;22.10;;
2211;SDS011;48849;48.758;9.158;2022-12-18T12:25:55;40.15;;;22.23;;
2211;SDS011;48849;48.758;9.158;2022-12-18T12:28:30;44.08;;;24.60;;
2211;SDS011;48849;48.758;9.158;2022-12-18T12:31:13;43.63;;;23.70;;
2211;SDS011;48849;48.758;9.158;2022-12-18T12:33:49;39.30;;;22.35;;
2211;SDS011;48849;48.758;9.158;2022-12-18T12:36:25;40.67;;;23.00;;
2211;SDS011;48849;48.758;9.158;2022-12-18T12:39:00;37.45;;;20.67;;
2211;SDS011;48849;48.758;9.158;2022-12-18T12:41:32;38.10;;;20.95;;
2211;SDS011;48849;48.758;9.158;2022-12-18T12:44:21;44.92;;;22.27;;
2211;SDS011;48849;48.758;9.158;2022-12-18T12:46:55;36.17;;;20.05;;
2211;SDS011;48849;48.758;9.158;2022-12-18T12:49:26;39.17;;;22.38;;
2211;SDS011;48849;48.758;9.158;2022-12-18T12:51:58;36.95;;;20.95;;
2211;SDS011;48849;48.758;9.158;2022-12-18T12:54:31;35.05;;;20.45;;
2211;SDS011;48849;48.758;9.158;2022-12-18T12:57:01;39.95;;;21.02;;
2211;SDS011;48849;48.758;9.158;2022-12-18T12:59:35;35.08;;;20.58;;
2211;SDS011;48849;48.758;9.158;2022-12-18T13:02:13;35.88;;;20.63;;
2211;SDS011;48849;48.758;9.158;2022-12-18T13:04:47;36.63;;;21.27;;
2211;SDS011;48849;48.758;9.158;2022-12-18T13:07:19;37.80;;;21.63;;
2211;SDS011;48849;48.758;9.158;2022-12-18T13:10:14;39.83;;;21.67;;
2211;SDS011;48849;48.758;9.158;2022-12-18T13:12:54;38.20;;;21.50;;
2211;SDS011;48849;48.758;9.158;2022-12-18T13:15:21;37.05;;;21.15;;
2211;SDS011;48849;48.758;9.158;2022-12-18T13:17:54;36.50;;;21.10;;
2211;SDS011;48849;48.758;9.158;2022-12-18T13:20:41;34.28;;;21.20;;
2211;SDS011;48849;48.758;9.158;2022-12-18T13:29:04;34.78;;;19.90;;
2211;SDS011;48849;48.758;9.158;2022-12-18T13:34:29;41.35;;;21.10;;
2211;SDS011;48849;48.758;9.158;2022-12-18T13:36:57;34.85;;;20.92;;
2211;SDS011;48849;48.758;9.158;2022-12-18T13:40:02;36.42;;;20.92;;
2211;SDS011;48849;48.758;9.158;2022-12-18T13:42:49;38.78;;;21.48;;
2211;SDS011;48849;48.758;9.158;2022-12-18T13:45:46;39.95;;;21.38;;
2211;SDS011;48849;48.758;9.158;2022-12-18T13:48:16;40.05;;;20.80;;
2211;SDS011;48849;48.758;9.158;2022-12-18T13:50:50;39.03;;;21.90;;
2211;SDS011;48849;48.758;9.158;2022-12-18T13:53:21;45.10;;;24.33;;
2211;SDS011;48849;48.758;9.158;2022-12-18T13:55:50;48.35;;;26.08;;
2211;SDS011;48849;48.758;9.158;2022-12-18T13:58:17;45.63;;;24.25;;
2211;SDS011;48849;48.758;9.158;2022-12-18T14:00:43;41.85;;;23.48;;
2211;SDS011;48849;48.758;9.158;2022-12-18T14:03:18;39.08;;;22.42;;
2211;SDS011;48849;48.758;9.158;2022-12-18T14:05:52;42.22;;;23.10;;
2211;SDS011;48849;48.758;9.158;2022-12-18T14:08:21;40.03;;;23.13;;
2211;SDS011;48849;48.758;9.158;2022-12-18T14:10:51;41.75;;;21.50;;
2211;SDS011;48849;48.758;9.158;2022-12-18T14:13:19;39.05;;;22.52;;
2211;SDS011;48849;48.758;9.158;2022-12-18T14:15:50;39.17;;;22.65;;
2211;SDS011;48849;48.758;9.158;2022-12-18T14:18:19;40.70;;;23.30;;
2211;SDS011;48849;48.758;9.158;2022-12-18T14:20:49;47.47;;;26.13;;
2211;SDS011;48849;48.758;9.158;2022-12-18T14:23:28;39.42;;;23.23;;
2211;SDS011;48849;48.758;9.158;2022-12-18T14:25:58;43.45;;;24.00;;
2211;SDS011;48849;48.758;9.158;2022-12-18T14:28:25;40.40;;;22.90;;
2211;SDS011;48849;48.758;9.158;2022-12-18T14:30:53;41.87;;;23.90;;
2211;SDS011;48849;48.758;9.158;2022-12-18T14:33:22;38.33;;;23.80;;
2211;SDS011;48849;48.758;9.158;2022-12-18T14:35:55;39.00;;;23.58;;
2211;SDS011;48849;48.758;9.158;2022-12-18T14:38:25;44.92;;;23.55;;
2211;SDS011;48849;48.758;9.158;2022-12-18T14:40:56;37.95;;;23.92;;
2211;SDS011;48849;48.758;9.158;2022-12-18T14:43:24;45.20;;;24.48;;
2211;SDS011;48849;48.758;9.158;2022-12-18T14:45:52;39.10;;;23.20;;
2211;SDS011;48849;48.758;9.158;2022-12-18T14:48:20;39.38;;;22.45;;
2211;SDS011;48849;48.758;9.158;2022-12-18T14:50:57;43.78;;;24.65;;
2211;SDS011;48849;48.758;9.158;2022-12-18T14:53:34;38.90;;;22.27;;
2211;SDS011;48849;48.758;9.158;2022-12-18T14:56:03;45.20;;;24.33;;
2211;SDS011;48849;48.758;9.158;2022-12-18T14:58:43;43.78;;;23.83;;
2211;SDS011;48849;48.758;9.158;2022-12-18T15:01:17;44.55;;;25.33;;
2211;SDS011;48849;48.758;9.158;2022-12-18T15:03:49;39.05;;;22.05;;